Time;durP1;ratioP1;P1;durP2;ratioP2;P2;SDS_P1;SDS_P2;PMS_P1;PMS_P2;Temp;Humidity;BMP_temperature;BMP_pressure;BME280_temperature;BME280_humidity;BME280_pressure;Samples;Min_cycle;Max_cycle;Signal;HPM_P1;HPM_P2
2022/08/17 00:00:20;;;;;;;14.77;8.20;;;18.60;99.90;;;;;;5013783;28;20207;-69
2022/08/17 00:03:04;;;;;;;11.13;7.50;;;18.60;99.90;;;;;;5012944;28;20294;-68
2022/08/17 00:05:34;;;;;;;9.37;7.00;;;18.50;99.90;;;;;;5013422;28;20210;-68
2022/08/17 00:08:03;;;;;;;13.83;7.80;;;18.60;99.90;;;;;;5013377;28;20281;-69
2022/08/17 00:10:30;;;;;;;14.23;7.27;;;18.60;99.90;;;;;;5003232;28;20210;-68
2022/08/17 00:12:57;;;;;;;14.17;6.63;;;18.60;99.90;;;;;;4993014;28;20325;-71
2022/08/17 00:15:25;;;;;;;12.70;7.60;;;18.60;99.90;;;;;;4993258;28;20253;-68
2022/08/17 00:17:52;;;;;;;12.60;7.13;;;18.60;99.90;;;;;;4993422;28;20620;-69
2022/08/17 00:20:20;;;;;;;12.63;7.63;;;18.60;99.90;;;;;;4993847;28;20208;-68
2022/08/17 00:22:47;;;;;;;14.17;7.30;;;18.60;99.90;;;;;;4992775;28;20204;-69
2022/08/17 00:25:18;;;;;;;15.47;7.63;;;18.60;99.90;;;;;;5000960;28;20639;-69
2022/08/17 00:27:46;;;;;;;12.20;7.70;;;18.60;99.90;;;;;;5012088;28;20315;-70
2022/08/17 00:30:13;;;;;;;14.73;7.20;;;18.60;99.90;;;;;;5013187;28;20205;-69
2022/08/17 00:32:44;;;;;;;10.73;7.40;;;18.60;99.90;;;;;;5010516;28;20226;-69
2022/08/17 00:35:13;;;;;;;15.83;7.43;;;18.60;99.90;;;;;;5013086;28;20279;-68
2022/08/17 00:37:40;;;;;;;14.87;7.87;;;18.60;99.90;;;;;;5012442;28;20324;-68
2022/08/17 00:40:10;;;;;;;11.87;7.50;;;18.60;99.90;;;;;;5008842;28;20298;-69
2022/08/17 00:42:38;;;;;;;11.23;8.30;;;18.60;99.90;;;;;;5012444;28;20253;-68
2022/08/17 00:45:08;;;;;;;13.10;8.37;;;18.60;99.90;;;;;;5012843;28;20598;-69
2022/08/17 00:47:35;;;;;;;14.90;9.10;;;18.60;99.90;;;;;;5011397;28;20831;-69
2022/08/17 00:50:02;;;;;;;16.50;10.37;;;18.60;99.90;;;;;;5012878;28;20709;-70
2022/08/17 00:52:36;;;;;;;19.63;10.83;;;18.60;99.90;;;;;;5012697;28;20760;-70
2022/08/17 00:55:05;;;;;;;16.30;10.70;;;18.50;99.90;;;;;;5009873;28;20232;-69
2022/08/17 00:57:36;;;;;;;17.20;10.80;;;18.50;99.90;;;;;;5012248;28;20681;-69
2022/08/17 01:00:10;;;;;;;15.00;10.33;;;18.50;99.90;;;;;;5012194;28;20191;-70
2022/08/17 01:02:41;;;;;;;14.97;10.50;;;18.50;99.90;;;;;;5012183;28;20194;-69
2022/08/17 01:05:12;;;;;;;15.80;10.33;;;18.60;99.90;;;;;;5010449;28;20198;-70
2022/08/17 01:07:39;;;;;;;18.93;10.50;;;18.50;99.90;;;;;;5012631;28;20558;-70
2022/08/17 01:10:11;;;;;;;18.63;9.90;;;18.50;99.90;;;;;;5012315;28;20294;-68
2022/08/17 01:12:38;;;;;;;19.70;11.10;;;18.50;99.90;;;;;;5011984;28;20576;-69
2022/08/17 01:15:07;;;;;;;18.33;10.80;;;18.60;99.90;;;;;;5012481;28;20689;-69
2022/08/17 01:17:34;;;;;;;17.97;10.13;;;18.60;99.90;;;;;;5012151;28;20301;-70
2022/08/17 01:20:01;;;;;;;17.13;10.20;;;18.50;99.90;;;;;;5011452;28;20304;-69
2022/08/17 01:22:31;;;;;;;16.63;10.47;;;18.50;99.90;;;;;;5011775;28;20288;-70
2022/08/17 01:25:00;;;;;;;15.90;9.83;;;18.60;99.90;;;;;;5012032;28;20257;-70
2022/08/17 01:27:28;;;;;;;15.77;9.30;;;18.60;99.90;;;;;;5011996;28;20234;-68
2022/08/17 01:29:58;;;;;;;13.20;9.00;;;18.60;99.90;;;;;;5012209;28;20838;-69
2022/08/17 01:32:26;;;;;;;13.23;8.70;;;18.70;99.90;;;;;;5011914;28;20306;-68
2022/08/17 01:34:54;;;;;;;17.07;9.57;;;18.70;99.90;;;;;;5011542;28;20220;-69
2022/08/17 01:37:30;;;;;;;17.77;10.67;;;18.70;99.90;;;;;;5012002;28;20674;-70
2022/08/17 01:40:02;;;;;;;18.43;10.10;;;18.70;99.90;;;;;;5012202;28;20197;-68
2022/08/17 01:42:36;;;;;;;16.10;10.27;;;18.70;99.90;;;;;;5011090;28;20200;-69
2022/08/17 01:45:08;;;;;;;13.13;8.10;;;18.70;99.90;;;;;;5012085;28;20279;-69
2022/08/17 01:47:36;;;;;;;20.87;11.07;;;18.70;99.90;;;;;;5011670;28;20211;-68
2022/08/17 01:50:09;;;;;;;16.37;9.27;;;18.70;99.90;;;;;;5011284;28;20236;-69
2022/08/17 01:52:38;;;;;;;13.93;9.00;;;18.60;99.90;;;;;;5011784;28;20219;-70
2022/08/17 01:55:06;;;;;;;18.27;10.00;;;18.60;99.90;;;;;;5011990;28;20256;-68
2022/08/17 01:57:33;;;;;;;11.97;8.00;;;18.60;99.90;;;;;;5011842;28;20211;-70
2022/08/17 02:00:00;;;;;;;11.77;8.43;;;18.60;99.90;;;;;;5011779;28;20552;-68
2022/08/17 02:02:27;;;;;;;12.57;8.43;;;18.60;99.90;;;;;;5011808;28;20207;-68
2022/08/17 02:04:54;;;;;;;17.63;9.47;;;18.60;99.90;;;;;;5011148;28;20564;-70
2022/08/17 02:07:21;;;;;;;12.97;8.60;;;18.50;99.90;;;;;;5015246;28;20643;-68
2022/08/17 02:09:49;;;;;;;13.30;8.30;;;18.50;99.90;;;;;;5015650;28;20666;-70
2022/08/17 02:12:16;;;;;;;14.63;8.43;;;18.50;99.90;;;;;;5014163;28;20585;-68
2022/08/17 02:14:43;;;;;;;16.03;7.60;;;18.40;99.90;;;;;;5015170;28;20299;-69
2022/08/17 02:17:10;;;;;;;16.50;8.60;;;18.40;99.90;;;;;;5014947;28;20217;-69
2022/08/17 02:19:37;;;;;;;12.63;7.97;;;18.40;99.90;;;;;;5014253;28;20578;-70
2022/08/17 02:22:04;;;;;;;12.67;8.07;;;18.40;99.90;;;;;;5015003;28;20248;-68
2022/08/17 02:24:34;;;;;;;12.87;8.00;;;18.40;99.90;;;;;;5014894;28;20207;-70
2022/08/17 02:27:03;;;;;;;12.17;8.73;;;18.40;99.90;;;;;;5014885;28;20285;-69
2022/08/17 02:29:30;;;;;;;14.53;7.73;;;18.40;99.90;;;;;;5014897;28;20674;-70
2022/08/17 02:31:58;;;;;;;15.60;8.40;;;18.50;99.90;;;;;;5015214;28;20733;-70
2022/08/17 02:34:26;;;;;;;13.53;8.50;;;18.50;99.90;;;;;;5012129;28;20644;-69
2022/08/17 02:36:53;;;;;;;13.10;9.20;;;18.50;99.90;;;;;;5012770;28;20735;-68
2022/08/17 02:39:20;;;;;;;11.70;7.80;;;18.50;99.90;;;;;;5014438;28;20215;-68
2022/08/17 02:41:47;;;;;;;13.30;9.27;;;18.50;99.90;;;;;;5014560;28;20259;-69
2022/08/17 02:44:16;;;;;;;13.60;8.63;;;18.50;99.90;;;;;;5014957;28;20301;-71
2022/08/17 02:46:42;;;;;;;12.47;8.87;;;18.60;99.90;;;;;;5015034;28;20634;-69
2022/08/17 02:49:09;;;;;;;12.70;8.90;;;18.60;99.90;;;;;;5014009;28;20292;-71
2022/08/17 02:51:36;;;;;;;14.30;9.00;;;18.60;99.90;;;;;;5014754;28;20242;-71
2022/08/17 02:54:03;;;;;;;13.83;9.27;;;18.60;99.90;;;;;;5014391;28;20238;-69
2022/08/17 02:56:30;;;;;;;14.53;9.57;;;18.60;99.90;;;;;;5014607;28;20207;-70
2022/08/17 02:58:57;;;;;;;17.10;9.60;;;18.50;99.90;;;;;;5014672;28;20272;-71
2022/08/17 03:01:26;;;;;;;16.93;9.20;;;18.50;99.90;;;;;;5011099;28;20214;-70
2022/08/17 03:03:53;;;;;;;12.63;8.77;;;18.50;99.90;;;;;;5014676;28;20210;-70
2022/08/17 03:06:20;;;;;;;13.53;9.50;;;18.40;99.90;;;;;;5014161;28;20551;-71
2022/08/17 03:08:47;;;;;;;14.63;8.60;;;18.40;99.90;;;;;;5014054;28;20295;-69
2022/08/17 03:11:15;;;;;;;14.10;8.77;;;18.40;99.90;;;;;;5014061;28;20298;-70
2022/08/17 03:13:41;;;;;;;15.13;8.30;;;18.40;99.90;;;;;;5014183;28;20261;-70
2022/08/17 03:16:09;;;;;;;12.80;8.30;;;18.50;99.90;;;;;;5013481;28;20257;-70
2022/08/17 03:18:37;;;;;;;15.30;8.30;;;18.50;99.90;;;;;;5013642;28;20210;-70
2022/08/17 03:21:05;;;;;;;14.33;9.03;;;18.60;99.90;;;;;;5014109;28;20622;-71
2022/08/17 03:23:33;;;;;;;14.90;8.80;;;18.50;99.90;;;;;;5013993;28;20203;-69
2022/08/17 03:26:00;;;;;;;14.77;8.63;;;18.50;99.90;;;;;;5014128;28;20765;-70
2022/08/17 03:28:28;;;;;;;14.47;8.67;;;18.50;99.90;;;;;;5013986;28;20263;-71
2022/08/17 03:30:55;;;;;;;13.10;8.33;;;18.50;99.90;;;;;;5012365;28;20211;-69
2022/08/17 03:33:21;;;;;;;13.23;8.90;;;18.50;99.90;;;;;;5013907;28;20256;-69
2022/08/17 03:35:50;;;;;;;12.00;8.40;;;18.50;99.90;;;;;;5013986;28;20213;-71
2022/08/17 03:38:18;;;;;;;11.53;8.97;;;18.60;99.90;;;;;;5013412;28;20725;-70
2022/08/17 03:40:46;;;;;;;11.83;7.97;;;18.60;99.90;;;;;;5013987;28;20246;-70
2022/08/17 03:43:13;;;;;;;11.63;8.13;;;18.70;99.90;;;;;;5013610;28;20695;-70
2022/08/17 03:56:59;;;;;;;13.07;8.60;;;18.90;99.90;;;;;;5013870;28;20315;-71
2022/08/17 03:59:26;;;;;;;10.83;7.67;;;19.00;99.90;;;;;;5012250;28;20218;-70
2022/08/17 04:01:56;;;;;;;15.00;8.57;;;19.00;99.90;;;;;;5013215;28;20269;-71
2022/08/17 04:04:23;;;;;;;13.40;8.57;;;19.10;99.90;;;;;;5013277;28;20215;-72
2022/08/17 04:06:52;;;;;;;14.43;9.03;;;19.10;99.90;;;;;;5013299;28;20215;-69
2022/08/17 04:09:19;;;;;;;11.10;8.10;;;19.20;99.90;;;;;;5013456;28;20216;-70
2022/08/17 04:11:46;;;;;;;12.43;8.27;;;19.30;99.90;;;;;;5013017;28;20302;-70
2022/08/17 04:14:13;;;;;;;17.10;9.80;;;19.40;99.90;;;;;;5012203;28;20308;-69
2022/08/17 04:16:40;;;;;;;16.03;10.60;;;19.40;99.90;;;;;;5013059;28;20203;-71
2022/08/17 04:19:07;;;;;;;23.17;14.70;;;19.40;99.90;;;;;;5012701;28;20720;-70
2022/08/17 04:21:34;;;;;;;18.97;10.93;;;19.60;99.90;;;;;;5013161;28;20305;-71
2022/08/17 04:24:03;;;;;;;17.33;10.93;;;19.60;99.90;;;;;;5011988;28;20294;-71
2022/08/17 04:26:31;;;;;;;14.90;9.97;;;19.70;99.90;;;;;;5012186;28;20312;-70
2022/08/17 04:28:59;;;;;;;15.17;9.47;;;19.70;99.90;;;;;;5013179;28;20310;-71
2022/08/17 04:31:27;;;;;;;14.10;8.37;;;19.80;99.90;;;;;;5012830;28;20304;-71
2022/08/17 04:33:55;;;;;;;15.93;9.67;;;19.80;99.90;;;;;;5012798;28;20812;-70
2022/08/17 04:36:21;;;;;;;12.77;8.57;;;19.90;99.90;;;;;;5013394;28;20237;-72
2022/08/17 04:38:49;;;;;;;19.27;9.50;;;20.00;99.90;;;;;;5012701;28;20265;-73
2022/08/17 04:44:03;;;;;;;13.47;9.47;;;20.10;99.90;;;;;;5012606;28;20191;-70
2022/08/17 04:46:32;;;;;;;10.73;8.60;;;20.10;99.90;;;;;;5012888;28;20202;-71
2022/08/17 04:49:01;;;;;;;16.40;9.03;;;20.10;99.90;;;;;;5011323;28;20602;-73
2022/08/17 04:51:30;;;;;;;18.77;9.07;;;20.20;99.90;;;;;;5012728;28;20209;-71
2022/08/17 04:53:59;;;;;;;14.77;8.77;;;20.20;99.90;;;;;;5012532;28;20228;-72
2022/08/17 04:56:30;;;;;;;14.50;8.53;;;20.20;99.90;;;;;;5010814;28;20338;-71
2022/08/17 04:58:58;;;;;;;16.03;11.33;;;20.30;99.90;;;;;;5012127;28;20225;-70
2022/08/17 05:01:28;;;;;;;15.07;9.10;;;20.40;99.90;;;;;;5012038;28;20300;-71
2022/08/17 05:03:57;;;;;;;15.37;8.67;;;20.40;99.90;;;;;;5012340;28;20211;-71
2022/08/17 05:06:25;;;;;;;16.93;8.93;;;20.50;99.90;;;;;;5012732;28;20280;-72
2022/08/17 05:08:53;;;;;;;15.27;8.53;;;20.60;99.90;;;;;;5012141;28;20306;-70
2022/08/17 05:11:21;;;;;;;14.47;8.23;;;20.60;99.90;;;;;;5009199;28;20221;-71
2022/08/17 05:13:49;;;;;;;15.20;8.73;;;20.70;99.90;;;;;;5008151;28;20314;-71
2022/08/17 05:16:17;;;;;;;18.97;8.90;;;20.80;99.90;;;;;;5009645;28;20652;-72
2022/08/17 05:18:45;;;;;;;15.40;8.23;;;20.80;99.90;;;;;;5003839;28;20772;-74
2022/08/17 05:21:11;;;;;;;12.83;8.00;;;20.90;99.90;;;;;;5012235;28;20241;-71
2022/08/17 05:23:39;;;;;;;15.43;7.53;;;21.00;99.90;;;;;;5012195;28;20212;-72
2022/08/17 05:26:07;;;;;;;8.93;6.77;;;21.00;99.90;;;;;;5012147;28;20207;-69
2022/08/17 05:28:33;;;;;;;17.33;8.30;;;21.00;99.90;;;;;;5012460;28;20293;-71
2022/08/17 05:31:03;;;;;;;12.57;7.43;;;21.10;99.90;;;;;;5012082;28;20298;-70
2022/08/17 05:33:32;;;;;;;14.37;7.97;;;21.10;99.90;;;;;;5005398;28;20586;-72
2022/08/17 05:36:01;;;;;;;21.37;13.03;;;21.20;99.90;;;;;;5010441;28;20684;-71
2022/08/17 05:38:29;;;;;;;24.93;11.73;;;21.20;99.90;;;;;;5011105;28;20238;-70
2022/08/17 05:40:57;;;;;;;23.80;11.90;;;21.30;99.90;;;;;;5014129;28;20645;-70
2022/08/17 05:43:27;;;;;;;27.07;11.70;;;21.30;99.90;;;;;;5016217;28;20293;-71
2022/08/17 05:46:00;;;;;;;25.83;10.77;;;21.40;99.90;;;;;;5015865;28;20211;-71
2022/08/17 05:48:30;;;;;;;18.67;9.70;;;21.50;99.90;;;;;;5015993;28;20283;-71
2022/08/17 05:51:06;;;;;;;20.57;8.77;;;21.50;99.90;;;;;;5011367;28;20235;-70
2022/08/17 05:53:42;;;;;;;16.10;8.47;;;21.60;99.90;;;;;;5015440;28;20211;-70
2022/08/17 05:56:14;;;;;;;13.07;8.20;;;21.60;99.90;;;;;;5009552;28;20254;-71
2022/08/17 05:58:54;;;;;;;15.30;8.07;;;21.70;99.90;;;;;;5014647;28;20207;-71
2022/08/17 06:01:34;;;;;;;12.40;8.10;;;21.70;99.90;;;;;;5016217;28;20237;-69
2022/08/17 06:04:12;;;;;;;19.40;12.00;;;21.70;99.90;;;;;;5012073;28;20618;-71
2022/08/17 06:06:45;;;;;;;14.67;8.33;;;21.80;99.90;;;;;;5015671;28;20277;-69
2022/08/17 06:09:26;;;;;;;12.27;7.40;;;21.80;99.90;;;;;;5014604;28;20731;-70
2022/08/17 06:11:59;;;;;;;20.53;8.50;;;22.00;99.90;;;;;;5011686;28;20666;-71
2022/08/17 06:14:40;;;;;;;16.50;8.30;;;22.00;99.90;;;;;;5015619;28;20289;-73
2022/08/17 06:17:11;;;;;;;21.07;10.80;;;22.10;99.90;;;;;;5015657;28;20586;-72
2022/08/17 06:19:43;;;;;;;16.10;9.10;;;22.10;99.90;;;;;;5015302;28;20195;-71
2022/08/17 06:22:16;;;;;;;16.53;8.90;;;22.10;99.90;;;;;;5014730;28;20586;-72
2022/08/17 06:24:48;;;;;;;16.53;8.13;;;22.20;99.90;;;;;;5014548;28;20278;-70
2022/08/17 06:27:23;;;;;;;17.83;8.67;;;22.30;99.90;;;;;;5007451;28;20212;-72
2022/08/17 06:29:55;;;;;;;18.23;8.70;;;22.40;99.90;;;;;;5012268;28;20568;-71
2022/08/17 06:32:22;;;;;;;14.63;8.13;;;22.50;99.90;;;;;;5015275;28;20201;-71
2022/08/17 06:34:52;;;;;;;18.33;8.93;;;22.50;99.90;;;;;;5014055;28;20223;-72
2022/08/17 06:37:31;;;;;;;17.83;10.60;;;22.60;99.90;;;;;;5008208;28;20675;-69
2022/08/17 06:40:12;;;;;;;17.70;8.63;;;22.70;99.90;;;;;;5011686;28;20245;-68
2022/08/17 06:42:48;;;;;;;15.43;8.60;;;22.80;99.90;;;;;;5011742;28;20279;-70
2022/08/17 06:45:18;;;;;;;21.27;9.10;;;22.90;99.90;;;;;;5011300;28;20243;-72
2022/08/17 06:47:49;;;;;;;21.40;10.20;;;23.00;99.90;;;;;;5013552;28;20205;-71
2022/08/17 06:50:21;;;;;;;18.43;10.10;;;23.10;99.90;;;;;;5012035;28;20205;-72
2022/08/17 06:52:53;;;;;;;15.93;8.13;;;23.20;99.90;;;;;;5006829;28;20250;-71
2022/08/17 06:55:26;;;;;;;18.70;8.77;;;23.30;99.90;;;;;;5008027;28;20218;-71
2022/08/17 06:57:55;;;;;;;18.90;9.67;;;23.40;99.90;;;;;;5010927;28;20191;-71
2022/08/17 07:00:24;;;;;;;19.60;9.80;;;23.40;99.90;;;;;;5013843;28;20206;-71
2022/08/17 07:03:01;;;;;;;16.90;9.50;;;23.50;99.90;;;;;;5012658;28;20707;-70
2022/08/17 07:05:35;;;;;;;19.07;8.83;;;23.50;99.90;;;;;;5012202;28;20335;-72
2022/08/17 07:08:07;;;;;;;19.30;8.60;;;23.60;99.90;;;;;;5010657;28;20632;-69
2022/08/17 07:10:41;;;;;;;20.13;8.00;;;23.70;99.90;;;;;;5013011;28;20202;-72
2022/08/17 07:13:37;;;;;;;22.70;8.40;;;23.80;99.90;;;;;;5013420;28;20226;-71
2022/08/17 07:16:16;;;;;;;14.37;7.57;;;23.80;99.90;;;;;;5010346;28;20218;-70
2022/08/17 07:18:43;;;;;;;16.52;8.02;;;23.90;99.90;;;;;;5012789;28;20514;-71
2022/08/17 07:21:25;;;;;;;14.33;8.07;;;24.00;99.90;;;;;;5010738;28;20210;-71
2022/08/17 07:24:06;;;;;;;19.08;7.63;;;24.10;99.90;;;;;;5012768;28;20218;-71
2022/08/17 07:26:33;;;;;;;19.37;9.03;;;24.10;99.90;;;;;;5011631;28;20202;-72
2022/08/17 07:29:01;;;;;;;22.83;9.77;;;24.30;99.90;;;;;;5012643;28;20289;-71
2022/08/17 07:31:32;;;;;;;16.50;8.10;;;24.30;99.90;;;;;;5013273;28;20216;-74
2022/08/17 07:34:07;;;;;;;22.03;8.63;;;24.40;99.90;;;;;;5005579;28;20214;-72
2022/08/17 07:36:35;;;;;;;16.73;8.80;;;24.50;99.90;;;;;;5009996;28;20226;-71
2022/08/17 07:39:04;;;;;;;14.50;8.00;;;24.50;99.90;;;;;;5029235;28;20286;-72
2022/08/17 07:41:38;;;;;;;16.57;8.07;;;24.60;99.90;;;;;;5012956;28;20663;-72
2022/08/17 07:44:12;;;;;;;23.07;8.57;;;24.60;99.90;;;;;;4994937;28;20554;-71
2022/08/17 07:49:35;;;;;;;13.57;7.85;;;24.70;99.90;;;;;;5033629;28;20189;-71
2022/08/17 07:52:08;;;;;;;22.77;7.97;;;24.80;99.90;;;;;;5033131;28;20257;-74
2022/08/17 07:54:37;;;;;;;17.70;8.00;;;24.90;99.90;;;;;;5030619;28;20747;-72
2022/08/17 07:57:32;;;;;;;12.50;7.18;;;24.90;99.90;;;;;;5011642;28;20576;-73
2022/08/17 08:00:23;;;;;;;13.48;7.70;;;25.00;99.90;;;;;;5014694;28;20287;-73
2022/08/17 08:03:14;;;;;;;13.13;6.80;;;25.00;99.90;;;;;;5013738;28;20209;-73
2022/08/17 08:05:49;;;;;;;11.20;6.75;;;25.10;99.90;;;;;;5011319;28;20584;-73
2022/08/17 08:08:28;;;;;;;15.80;8.10;;;25.10;99.90;;;;;;5013539;28;20199;-73
2022/08/17 08:11:05;;;;;;;21.92;7.90;;;25.10;99.90;;;;;;5014042;28;20366;-73
2022/08/17 08:13:34;;;;;;;13.55;7.22;;;25.20;99.90;;;;;;5015700;28;20195;-74
2022/08/17 08:16:23;;;;;;;12.13;6.90;;;25.30;99.90;;;;;;5018495;28;20296;-73
2022/08/17 08:18:53;;;;;;;17.55;6.97;;;25.30;99.90;;;;;;5010325;28;20202;-74
2022/08/17 08:21:40;;;;;;;11.45;5.47;;;25.40;99.90;;;;;;5012713;28;20319;-74
2022/08/17 08:24:28;;;;;;;15.77;5.78;;;25.40;99.90;;;;;;5009908;28;20748;-72
2022/08/17 08:26:59;;;;;;;13.50;6.18;;;25.40;99.90;;;;;;5013547;28;20277;-72
2022/08/17 08:29:36;;;;;;;12.10;6.07;;;25.40;99.90;;;;;;5013589;28;20198;-72
2022/08/17 08:32:09;;;;;;;9.88;5.40;;;25.50;99.90;;;;;;5013502;28;20201;-72
2022/08/17 08:34:44;;;;;;;11.05;5.93;;;25.50;99.90;;;;;;5013298;28;20303;-73
2022/08/17 08:37:21;;;;;;;17.17;7.00;;;25.50;99.90;;;;;;5012894;28;20244;-73
2022/08/17 08:39:58;;;;;;;9.93;6.53;;;25.60;99.90;;;;;;5010810;28;20727;-73
2022/08/17 08:42:33;;;;;;;10.02;6.30;;;25.60;99.90;;;;;;5013287;28;20247;-73
2022/08/17 08:45:08;;;;;;;12.60;7.00;;;25.60;99.90;;;;;;5011467;28;20232;-72
2022/08/17 08:47:56;;;;;;;12.90;6.03;;;25.70;99.90;;;;;;5011917;28;20263;-73
2022/08/17 08:50:31;;;;;;;11.43;5.75;;;25.70;99.90;;;;;;5012773;28;20200;-72
2022/08/17 08:53:09;;;;;;;8.57;5.50;;;25.70;99.90;;;;;;5013364;28;20292;-74
2022/08/17 08:55:47;;;;;;;13.25;5.72;;;25.70;99.90;;;;;;5015595;28;20211;-71
2022/08/17 08:58:18;;;;;;;10.57;5.75;;;25.70;99.90;;;;;;5012698;28;20278;-74
2022/08/17 09:00:49;;;;;;;11.63;5.85;;;25.80;99.90;;;;;;5012999;28;20197;-72
2022/08/17 09:03:49;;;;;;;10.48;5.90;;;25.80;99.90;;;;;;5011022;28;20286;-73
2022/08/17 09:06:29;;;;;;;12.98;6.53;;;25.90;99.90;;;;;;5009981;28;20273;-72
2022/08/17 09:09:07;;;;;;;13.65;6.47;;;26.00;99.90;;;;;;5012425;28;20197;-73
2022/08/17 09:11:44;;;;;;;15.25;6.78;;;26.00;99.90;;;;;;5012396;28;20193;-72
2022/08/17 09:14:16;;;;;;;14.38;7.22;;;26.00;99.90;;;;;;5013479;28;20308;-74
2022/08/17 09:16:49;;;;;;;13.98;6.13;;;26.00;99.90;;;;;;5016728;28;20237;-75
2022/08/17 09:19:29;;;;;;;14.27;7.20;;;26.00;99.90;;;;;;5017236;28;20222;-72
2022/08/17 09:22:01;;;;;;;12.80;6.82;;;26.10;99.90;;;;;;5017266;28;20198;-73
2022/08/17 09:24:37;;;;;;;18.45;7.40;;;26.10;99.90;;;;;;5016660;28;20191;-73
2022/08/17 09:27:12;;;;;;;14.35;6.60;;;26.20;99.90;;;;;;5017086;28;20226;-72
2022/08/17 09:29:47;;;;;;;17.42;7.50;;;26.20;99.90;;;;;;5015857;28;20651;-74
2022/08/17 09:32:19;;;;;;;15.35;7.30;;;26.20;99.90;;;;;;5016828;28;20193;-72
2022/08/17 09:34:53;;;;;;;16.67;7.68;;;26.30;99.90;;;;;;5016742;28;20253;-72
2022/08/17 09:37:38;;;;;;;15.82;6.97;;;26.40;99.90;;;;;;5016427;28;20332;-75
2022/08/17 09:40:13;;;;;;;12.48;7.47;;;26.40;99.90;;;;;;5016400;28;20299;-73
2022/08/17 09:42:48;;;;;;;12.80;7.10;;;26.50;99.90;;;;;;5016216;28;20780;-73
2022/08/17 09:45:29;;;;;;;17.50;6.63;;;26.50;99.90;;;;;;5011835;28;20737;-75
2022/08/17 09:48:01;;;;;;;13.65;7.60;;;26.50;99.90;;;;;;5011168;28;20312;-74
2022/08/17 09:50:35;;;;;;;12.55;7.32;;;26.60;99.90;;;;;;5016336;28;20197;-73
2022/08/17 09:53:02;;;;;;;15.20;7.70;;;26.70;99.90;;;;;;5016134;28;20232;-73
2022/08/17 09:55:50;;;;;;;21.52;7.70;;;26.70;99.90;;;;;;5016336;28;20270;-75
2022/08/17 09:58:24;;;;;;;12.68;7.13;;;26.70;99.90;;;;;;5015746;28;20294;-72
2022/08/17 10:00:58;;;;;;;13.10;7.32;;;26.70;99.90;;;;;;5016547;28;20299;-72
2022/08/17 10:03:35;;;;;;;16.27;7.82;;;26.80;99.90;;;;;;5009671;28;20555;-72
2022/08/17 10:06:07;;;;;;;20.10;8.73;;;26.80;99.90;;;;;;5014829;28;20258;-73
2022/08/17 10:08:42;;;;;;;15.98;7.63;;;26.80;99.90;;;;;;5016151;28;20234;-74
2022/08/17 10:12:14;;;;;;;16.63;8.27;;;26.80;99.90;;;;;;5016365;28;20223;-73
2022/08/17 10:14:25;;;;;;;12.85;7.28;;;26.80;99.90;;;;;;5015838;28;20836;-72
2022/08/17 10:17:00;;;;;;;12.68;6.95;;;26.80;99.90;;;;;;5016047;28;20283;-72
2022/08/17 10:19:36;;;;;;;17.17;6.95;;;26.80;99.90;;;;;;5017188;28;20206;-72
2022/08/17 10:27:50;;;;;;;15.18;8.15;;;26.90;99.90;;;;;;5014470;28;20211;-73
2022/08/17 10:30:23;;;;;;;12.75;9.23;;;26.90;99.90;;;;;;5014270;28;20231;-74
2022/08/17 10:32:55;;;;;;;16.88;8.20;;;26.90;99.90;;;;;;5009897;28;20624;-72
2022/08/17 10:35:34;;;;;;;14.05;8.23;;;26.80;99.90;;;;;;5014374;28;20617;-72
2022/08/17 10:38:33;;;;;;;14.48;7.45;;;26.80;99.90;;;;;;5030245;28;20231;-71
2022/08/17 10:41:13;;;;;;;13.57;8.18;;;26.80;99.90;;;;;;5027539;28;20304;-71
2022/08/17 10:43:49;;;;;;;14.90;7.82;;;26.90;99.90;;;;;;5015909;28;20298;-71
2022/08/17 10:46:24;;;;;;;17.63;7.68;;;26.80;99.90;;;;;;5015259;28;20192;-72
2022/08/17 10:49:26;;;;;;;14.85;8.40;;;26.80;99.90;;;;;;5015599;28;20531;-72
2022/08/17 10:51:55;;;;;;;14.52;7.60;;;26.80;99.90;;;;;;5016105;28;20288;-71
2022/08/17 10:54:46;;;;;;;16.20;7.97;;;26.90;99.90;;;;;;5015142;28;20263;-72
2022/08/17 10:57:48;;;;;;;16.45;8.25;;;26.90;99.90;;;;;;5024726;28;20271;-74
2022/08/17 11:01:00;;;;;;;16.48;7.72;;;27.00;99.90;;;;;;5032593;28;20738;-73
2022/08/17 11:03:31;;;;;;;15.07;7.25;;;27.10;99.90;;;;;;5015422;28;20199;-72
2022/08/17 11:06:11;;;;;;;15.50;7.38;;;27.10;99.90;;;;;;5015337;28;20558;-74
2022/08/17 11:09:20;;;;;;;11.68;7.07;;;27.20;99.90;;;;;;5015445;28;20200;-71
2022/08/17 11:12:15;;;;;;;19.13;7.53;;;27.30;99.90;;;;;;5014519;28;20220;-72
2022/08/17 11:15:03;;;;;;;14.93;7.03;;;27.30;99.90;;;;;;5027807;28;20313;-70
2022/08/17 11:18:06;;;;;;;16.58;8.18;;;27.30;99.90;;;;;;5034002;28;20287;-73
2022/08/17 11:21:02;;;;;;;20.85;7.68;;;27.30;99.90;;;;;;5029792;28;20196;-71
2022/08/17 11:23:45;;;;;;;16.85;8.10;;;27.40;99.90;;;;;;5003106;28;20344;-72
2022/08/17 11:26:24;;;;;;;13.60;7.85;;;27.40;99.90;;;;;;5009336;28;20284;-72
2022/08/17 11:28:55;;;;;;;14.25;8.25;;;27.40;99.90;;;;;;5014162;28;20211;-70
2022/08/17 11:31:30;;;;;;;12.35;8.68;;;27.40;99.90;;;;;;5014435;28;20293;-71
2022/08/17 11:34:07;;;;;;;17.13;8.73;;;27.40;99.90;;;;;;5013370;28;20198;-71
2022/08/17 11:37:05;;;;;;;22.17;9.05;;;27.40;99.90;;;;;;5024305;28;20321;-70
2022/08/17 11:39:54;;;;;;;18.13;8.15;;;27.30;99.90;;;;;;5013650;28;20287;-70
2022/08/17 11:42:33;;;;;;;13.10;7.45;;;27.30;99.90;;;;;;5014490;28;20284;-70
2022/08/17 11:45:07;;;;;;;20.35;7.30;;;27.40;99.90;;;;;;5012817;28;20259;-71
2022/08/17 11:54:08;;;;;;;17.35;8.25;;;27.50;99.90;;;;;;4995509;28;20220;-73
2022/08/17 11:56:41;;;;;;;13.85;8.45;;;27.50;99.90;;;;;;4995805;28;20225;-72
2022/08/17 11:59:57;;;;;;;14.77;8.10;;;27.60;99.90;;;;;;4995513;28;20230;-72
2022/08/17 12:02:43;;;;;;;18.10;8.02;;;27.70;99.90;;;;;;4953535;29;20214;-71
2022/08/17 12:05:32;;;;;;;15.63;8.00;;;27.80;99.90;;;;;;4953801;29;20263;-74
2022/08/17 12:08:17;;;;;;;22.10;9.05;;;27.80;99.90;;;;;;4954447;29;20238;-73
2022/08/17 12:10:57;;;;;;;12.95;7.55;;;27.90;99.90;;;;;;4953734;29;20202;-71
2022/08/17 12:13:27;;;;;;;18.02;8.32;;;28.00;99.90;;;;;;4953559;29;20777;-73
2022/08/17 12:15:55;;;;;;;15.07;8.15;;;28.00;99.90;;;;;;4953288;29;20292;-70
2022/08/17 12:18:24;;;;;;;16.55;7.72;;;28.00;99.90;;;;;;4953293;29;20287;-71
2022/08/17 12:21:36;;;;;;;23.13;8.70;;;27.90;99.90;;;;;;4953300;29;20211;-75
2022/08/17 12:24:13;;;;;;;19.50;8.63;;;27.80;99.90;;;;;;4933898;29;20279;-72
2022/08/17 12:26:42;;;;;;;15.05;8.00;;;27.80;99.90;;;;;;4933760;29;20208;-71
2022/08/17 12:29:16;;;;;;;19.73;8.57;;;27.80;99.90;;;;;;4933498;29;20377;-73
2022/08/17 12:31:47;;;;;;;16.30;7.93;;;27.80;99.90;;;;;;4933707;29;20265;-74
2022/08/17 12:34:17;;;;;;;16.50;8.10;;;27.80;99.90;;;;;;4990294;28;20209;-73
2022/08/17 12:36:46;;;;;;;14.95;8.63;;;27.80;99.90;;;;;;4990836;28;20319;-72
2022/08/17 12:39:20;;;;;;;15.55;7.97;;;27.80;99.90;;;;;;4991564;28;20189;-72
2022/08/17 12:41:49;;;;;;;18.70;9.00;;;27.80;99.90;;;;;;4991854;28;20794;-71
2022/08/17 12:44:20;;;;;;;13.05;7.88;;;27.70;99.90;;;;;;4991484;28;20317;-74
2022/08/17 12:46:54;;;;;;;16.35;7.57;;;27.60;99.90;;;;;;4991319;28;20628;-71
2022/08/17 12:49:26;;;;;;;16.65;8.02;;;27.60;99.90;;;;;;4991594;28;20259;-71
2022/08/17 12:52:07;;;;;;;16.02;8.48;;;27.60;99.90;;;;;;4991470;28;20234;-72
2022/08/17 12:54:41;;;;;;;16.40;7.88;;;27.50;99.90;;;;;;4992169;28;20261;-71
2022/08/17 12:57:13;;;;;;;15.65;7.57;;;27.50;99.90;;;;;;4993867;28;20209;-70
2022/08/17 12:59:44;;;;;;;17.58;8.30;;;27.50;99.90;;;;;;4994042;28;20655;-71
2022/08/17 13:02:37;;;;;;;15.70;8.18;;;27.50;99.90;;;;;;4994025;28;20286;-70
2022/08/17 13:05:06;;;;;;;14.23;7.70;;;27.50;99.90;;;;;;4993662;28;20194;-70
2022/08/17 13:07:40;;;;;;;17.80;8.27;;;27.50;99.90;;;;;;4993319;28;20253;-70
2022/08/17 13:10:08;;;;;;;16.23;8.02;;;27.40;99.90;;;;;;4993375;28;20197;-72
2022/08/17 13:12:36;;;;;;;13.85;7.15;;;27.40;99.90;;;;;;4993538;28;20747;-73
2022/08/17 13:15:05;;;;;;;15.63;7.50;;;27.40;99.90;;;;;;4993160;28;20209;-71
2022/08/17 13:17:35;;;;;;;16.33;7.45;;;27.40;99.90;;;;;;5014468;28;20215;-73
2022/08/17 13:20:04;;;;;;;18.63;8.55;;;27.40;99.90;;;;;;5032441;28;20317;-72
2022/08/17 13:22:32;;;;;;;23.67;7.90;;;27.40;99.90;;;;;;5019647;28;20217;-71
2022/08/17 13:25:05;;;;;;;14.48;7.20;;;27.40;99.90;;;;;;5012374;28;20214;-72
2022/08/17 13:27:33;;;;;;;12.68;7.65;;;27.50;99.90;;;;;;5012636;28;20197;-71
2022/08/17 13:30:04;;;;;;;18.60;7.55;;;27.40;99.90;;;;;;5012311;28;20215;-71
2022/08/17 13:32:41;;;;;;;14.43;7.22;;;27.40;99.90;;;;;;5012905;28;20288;-72
2022/08/17 13:35:35;;;;;;;15.02;7.68;;;27.40;99.90;;;;;;5014989;28;20209;-72